Yemassee, SC

2:58 PM EDT on July 07, 2015 (GMT -0400)
RAWS | | Change Station
CLOSE
Current Station
Personal Weather Station
Location: Yemassee, SC
Elevation: 6 ft
Nearby Weather Stations

Elev 6 ft 32.66 °N, 80.72 °W | Updated 35 minutes ago

Mostly Cloudy
Mostly Cloudy
86.0 °F
Feels Like 96 °F
N
2.0
Wind Variable Wind from WNW
Gusts 10.0 mph

Today
High -- | Low -- °F
--% Chance of Precip.
Yesterday
High -- | Low -- °F
Precip. -- in
6:21 AM 8:33 PM
Waning Gibbous, 62% visible
Pressure 30.15 in
Visibility 10.0 miles
Clouds Mostly Cloudy 3600 ft
Mostly Cloudy 8000 ft
Overcast 10000 ft
Heat Index 96 °F
Dew Point 76.0 °F
Humidity 73%
Rainfall in
Snow Depth Not available.
UV 4 out of 12
Pollen 2.90 out of 12
Air Quality Not available.
Flu Activity Not available.
METAR KNBC 071856Z 17005KT 10SM -TSRA BKN036CB BKN080 OVC100 25/23 A3014 RMK AO2 RAB14 TSB05 SLP208 CONS LTGICCCCG OHD CB OHD MOV SE CB 6NE MOV SE P0000 T02500228

More Conditions Fewer Conditions

Pressure 30.15 in
Visibility 10.0 miles
Clouds Mostly Cloudy 3600 ft
Mostly Cloudy 8000 ft
Overcast 10000 ft
Heat Index 96 °F
Dew Point 76.0 °F
Humidity 73%
Rainfall in
Snow Depth Not available.
UV 4 out of 12
Pollen 2.90 out of 12
Air Quality Not available.
Flu Activity Not available.
METAR KNBC 071856Z 17005KT 10SM -TSRA BKN036CB BKN080 OVC100 25/23 A3014 RMK AO2 RAB14 TSB05 SLP208 CONS LTGICCCCG OHD CB OHD MOV SE CB 6NE MOV SE P0000 T02500228

More Conditions Fewer Conditions

10-Day Weather Forecast

×

Almanac

Astronomy

Jul. 07, 2015 Rise Set
Actual Time
Civil Twilight
Nautical Twilight
Astronomical Twilight
Moon
Length of Visible Light
Length of Day
Tomorrow will be .
, % of the Moon is Illuminated

Today's Extremes

State Highs State Lows

Community

WunderPhotos

Upload Photos

1,835,868 photos uploaded!

WunderBlogs® & News

Nearby

Air Quality

  Air Quality AQ Index Pollutant
Not available.

Snow Depth

Station Depth Elevation

Earthquake Activity

City Distance Mag. Time & Date
Minimum magnitude displayed is 2.5.

Coastal Water Temperatures

Place Temperature

Stations

Nearby Weather Stations

Station Location Temp. Windchill Dew Point Humidity Wind Precip. Elev Updated Type